Impacts TAF Board
For situational awareness. Not to be used for flight planning purposes.
IDs:

KSGR - Houston/Sugar Land R, TX, US

Issued at 1721 UTC 21 May 2022
Updated at 2308 UTC 21 May 2022
Potential Impact None Slight Moderate High
Time2305Z 22/00Z 22/01Z 22/02Z 22/03Z 22/04Z 22/05Z 22/06Z 22/07Z 22/08Z 22/09Z 22/10Z 22/11Z 22/12Z>>
Type OBS PRVL PRVL PRVL PRVL PRVL PRVL PRVL PRVL PRVL PRVL
  [TEMP]  
PRVL
  [TEMP]  
PRVL
  [TEMP]  
PRVL
  [TEMP]  
VIS 10 >6 >6 >6 >6 >6 >6 >6 >6 >6 >6
  [3]  
>6
  [3]  
>6
  [3]  
>6
  [3]  
CIG 28 -- -- -- -- 25 25 25 20 20 20
  [20]  
20
  [20]  
20
  [20]  
20
  [20]  
Cover OVC SCT SCT SCT SCT BKN BKN BKN BKN BKN BKN
  [BKN]  
BKN
  [BKN]  
BKN
  [BKN]  
BKN
  [BKN]  
FltCat MVFR VFR VFR VFR VFR MVFR MVFR MVFR MVFR MVFR MVFR
  [MVFR]  
MVFR
  [MVFR]  
MVFR
  [MVFR]  
MVFR
  [MVFR]  
WX -- -- -- -- -- -- -- -- -RA VCTS -RA VCTS -RA VCTS
  [TSRA]  
-RA VCTS
  [TSRA]  
-RA VCTS
  [TSRA]  
-RA VCTS
  [TSRA]  
WDir 130 150 150 150 150 140 140 140 140 140 140
[VRB]
140
[VRB]
140
[VRB]
140
[VRB]
WSpd 15 10 10 10 10 10 10 10 10 10 10
  [25]  
10
  [25]  
10
  [25]  
10
  [25]  
WGst -- 20 20 20 20 -- -- -- -- -- --
  [--]  
--
  [--]  
--
  [--]  
--
  [--]  
WSHgt -- -- -- -- -- -- -- -- -- -- --
[--]
--
[--]
--
[--]
--
[--]
WSDir -- -- -- -- -- -- -- -- -- -- --
[--]
--
[--]
--
[--]
--
[--]
WSSpd -- -- -- -- -- -- -- -- -- -- --
[--]
--
[--]
--
[--]
--
[--]
Raw TAF
KSGR 211721Z 2118/2218 15010G20KT P6SM SCT035
  FM220400 14010KT P6SM BKN025 BKN150
  FM220700 14010KT P6SM -RA VCTS BKN020CB
  TEMPO 2209/2213 VRB25KT 3SM TSRA
  FM221300 02012KT P6SM VCSH SCT008 BKN015
  FM221700 02010KT P6SM VCSH BKN025


Raw METAR
KSGR 212305Z 13015KT 10SM BKN028 OVC033 32/24 A2984 RMK AO2 T03170244
KSGR 212253Z 14017KT 10SM SCT028 OVC033 32/24 A2985 RMK AO2 SLP107 T03220244
KSGR 212153Z 14016G23KT 10SM BKN036 33/24 A2985 RMK AO2 SLP107 T03330244
KSGR 212053Z 16015G21KT 10SM SCT037 35/24 A2985 RMK AO2 SLP107 T03500239 58010

METAR Board
Radar Display
Forecast Discussion
For situational awareness. Not to be used for flight planning purposes.